EBFSEBBE

Guest
Details From EBFS - Florennes
To EBBE - Beauvechain
Flight Number -
Tags generated
Created
Modified
Stats Distance 31 nm / 58 km
Max Altitude 0 ft / 0 m
Waypoints 3
Social Downloads 1
Likes 0
Share VATSIM

Download

Looking for another format? Having issues loading an existing format? Contact us
Advertisement - Login to hide

Notes

Basic altitude profile: - Ascent Rate: 2500ft/min - Ascent Speed: 250kts - Cruise Altitude: 7000ft - Cruise Speed: 350kts - Descent Rate: 1500ft/min - Descent Speed: 250kts

Route

EBFS GILOM EBBE

ID Type Via Altitude Latitude Longitude Leg Dist Tot Dist Heading (true) Name
O EBFS APT - 0 ft / 0 m 50.24086˚ 4.64829˚ - 0 nm - Florennes
GILOM FIX - 0 ft / 0 m 50.75202˚ 4.77411˚ 31 nm 31 nm 9° / 9° -
O EBBE APT - 0 ft / 0 m 50.75695˚ 4.76936˚ 0 nm 31 nm 329° / 329° Beauvechain

Altitude Profile

Advertisement - Login to hide

EBFS

Details ICAO EBFS
Name Florennes
Region Belgium
Timezone Europe/Brussels (UTC+1.0)
Stats Elevation 900 ft / 274 m (AMSL)
Location 50.240864° 4.648295°
Runways 2
Magnetic Variation 1.203° E

METAR

EBFS 112103Z AUTO 31011KT 9999 -RASN BKN004/// OVC006/// M01/M02 Q0984 YLO

Decode

TAF

Not found

Departure Runways

ID Width Length Bearing (true) Bearing (mag) Surface Threshold Offset Overrun Length
08L 148 ft / 45 m 11,215 ft / 3,418 m 79.47° 78.27° Asphalt 889 ft / 271 m 161 ft / 49 m
08R 75 ft / 23 m 7,337 ft / 2,236 m 79.44° 78.24° Asphalt 453 ft / 138 m 0 ft / 0 m
26L 75 ft / 23 m 7,337 ft / 2,236 m 259.46° 258.26° Asphalt 502 ft / 153 m 0 ft / 0 m
26R 148 ft / 45 m 11,215 ft / 3,418 m 259.51° 258.31° Asphalt 1,345 ft / 410 m 13 ft / 4 m

EBBE

Details ICAO EBBE
Name Beauvechain
Region Belgium
Timezone Europe/Brussels (UTC+1.0)
Stats Elevation 341 ft / 104 m (AMSL)
Location 50.756950° 4.769359°
Runways 2
Magnetic Variation 1.215° E

METAR

EBBE 112103Z AUTO 33009KT 9999 -RASN BKN005/// BKN007/// M00/M01 Q0984 YLO

Decode

TAF

Not found

Destination Runways

ID Width Length Bearing (true) Bearing (mag) Surface Threshold Offset Overrun Length
04L 148 ft / 45 m 9,154 ft / 2,790 m 38.81° 37.60° Asphalt 213 ft / 65 m 965 ft / 294 m
04R 75 ft / 23 m 7,599 ft / 2,316 m 38.85° 37.64° Asphalt 0 ft / 0 m 0 ft / 0 m
22L 75 ft / 23 m 7,599 ft / 2,316 m 218.86° 217.65° Asphalt 0 ft / 0 m 0 ft / 0 m
22R 148 ft / 45 m 9,154 ft / 2,790 m 218.83° 217.62° Asphalt 1,145 ft / 349 m 0 ft / 0 m

Approach Navaids

Runway Type Ident Frequency Range Bearing (true) Bearing (mag) Slope Elevation
22R Localiser IBBE 111.35 MHz 18 nm / 33 km 218.71° 217.50° - 383 ft / 117 m (AMSL)
22R Glidescope IBBE 111.35 MHz 10 nm / 19 km 218.82° 217.61° 2.75° 312 ft / 95 m (AMSL)